This is the latest recevied weather packets stored in our database for station/object OK1OBR-13. If no packets are shown the sender has not sent any weather packets the latest 1 day(s).
| Time | Temp. | Humidity | Pressure | Rain* | Wind** | Luminosity | Snow |
|---|---|---|---|---|---|---|---|
| 1777973521 | 19.44° C | 46% | 930.6 hPa | 0 mm | 0.89 m/s, 138° | - | - |
| 1777973461 | 19.44° C | 46% | 930.7 hPa | 0 mm | 0.89 m/s, 140° | - | - |
| 1777973402 | 19.44° C | 46% | 930.5 hPa | 0 mm | 0.89 m/s, 146° | - | - |
| 1777973341 | 19.44° C | 47% | 930.5 hPa | 0 mm | 0.89 m/s, 160° | - | - |
| 1777973282 | 20° C | 46% | 930.8 hPa | 0 mm | 0.45 m/s, 208° | - | - |
| 1777973221 | 20° C | 46% | 930.8 hPa | 0 mm | 0.45 m/s, 208° | - | - |
| 1777973161 | 20° C | 46% | 930.6 hPa | 0 mm | 0.89 m/s, 207° | - | - |
| 1777973101 | 20° C | 45% | 930.6 hPa | 0 mm | 0 m/s | - | - |
| 1777973041 | 20° C | 50% | 930.6 hPa | 0 mm | 0.45 m/s, 210° | - | - |
| 1777972981 | 20° C | 49% | 930.7 hPa | 0 mm | 0.45 m/s, 153° | - | - |
| 1777972921 | 20° C | 45% | 930.5 hPa | 0 mm | 0 m/s | - | - |
| 1777972862 | 20° C | 46% | 930.7 hPa | 0 mm | 0.45 m/s, 216° | - | - |
| 1777972801 | 20° C | 44% | 930.5 hPa | 0 mm | 0 m/s | - | - |
| 1777972741 | 20° C | 44% | 930.6 hPa | 0 mm | 0 m/s | - | - |
| 1777972681 | 20° C | 46% | 930.8 hPa | 0 mm | 0.45 m/s, 148° | - | - |
| 1777972620 | 19.44° C | 45% | 930.8 hPa | 0 mm | 0.45 m/s, 132° | - | - |
| 1777972561 | 19.44° C | 47% | 930.8 hPa | 0 mm | 0 m/s | - | - |
| 1777972501 | 18.89° C | 47% | 930.6 hPa | 0 mm | 0 m/s | - | - |
| 1777972442 | 18.89° C | 49% | 930.6 hPa | 0 mm | 0 m/s | - | - |
| 1777972381 | 18.89° C | 46% | 930.5 hPa | 0 mm | 0 m/s | - | - |
| 1777972332 | 18.89° C | 46% | 930.7 hPa | 0 mm | 0.45 m/s, 48° | - | - |
| 1777972261 | 18.89° C | 46% | 930.5 hPa | 0 mm | 0.45 m/s, 352° | - | - |
| 1777972202 | 18.89° C | 47% | 930.6 hPa | 0 mm | 0 m/s | - | - |
| 1777972141 | 18.89° C | 47% | 930.7 hPa | 0 mm | 0 m/s | - | - |
| 1777972080 | 18.89° C | 47% | 930.8 hPa | 0 mm | 0.45 m/s, 142° | - | - |
* Rain since midnight (hover to see other rain measurements)
** Current wind speed in m/s (hover to see current wind gust speed)